Time;durP1;ratioP1;P1;durP2;ratioP2;P2;SDS_P1;SDS_P2;PMS_P1;PMS_P2;Temp;Humidity;BMP_temperature;BMP_pressure;BME280_temperature;BME280_humidity;BME280_pressure;Samples;Min_cycle;Max_cycle;Signal;HPM_P1;HPM_P2
2021/01/30 00:01:38;;;;;;;6.25;4.03;;;3.70;99.90;;;;;;5031893;28;20029;-69
2021/01/30 00:04:04;;;;;;;10.55;3.83;;;3.60;99.90;;;;;;5031951;28;20506;-69
2021/01/30 00:06:30;;;;;;;13.32;4.43;;;3.40;99.90;;;;;;5032421;28;20033;-69
2021/01/30 00:08:55;;;;;;;12.18;3.78;;;3.30;99.90;;;;;;5031652;28;20057;-70
2021/01/30 00:11:21;;;;;;;7.78;3.47;;;3.30;99.90;;;;;;5032290;28;20025;-69
2021/01/30 00:13:46;;;;;;;4.57;3.05;;;3.20;99.90;;;;;;5032209;28;20027;-69
2021/01/30 00:16:15;;;;;;;5.00;3.05;;;3.20;99.90;;;;;;5031654;28;20043;-68
2021/01/30 00:18:41;;;;;;;9.20;3.15;;;3.10;99.90;;;;;;5031797;28;20033;-67
2021/01/30 00:21:09;;;;;;;7.43;3.42;;;3.00;99.90;;;;;;5032027;28;20029;-68
2021/01/30 00:23:34;;;;;;;4.13;2.30;;;3.10;99.90;;;;;;5031670;28;20030;-68
2021/01/30 00:26:00;;;;;;;5.75;3.25;;;3.00;99.90;;;;;;5032013;28;20797;-68
2021/01/30 00:28:25;;;;;;;5.93;2.88;;;2.90;99.90;;;;;;5031957;28;20459;-69
2021/01/30 00:30:51;;;;;;;6.38;2.95;;;2.90;99.90;;;;;;5030985;28;20074;-68
2021/01/30 00:33:16;;;;;;;5.55;3.47;;;2.90;99.90;;;;;;5032007;28;20060;-68
2021/01/30 00:35:42;;;;;;;8.75;3.05;;;2.90;99.90;;;;;;5031796;28;20074;-69
2021/01/30 00:38:07;;;;;;;7.82;3.20;;;2.90;99.90;;;;;;5031400;28;20121;-69
2021/01/30 00:40:33;;;;;;;5.20;2.72;;;2.80;99.90;;;;;;5031890;28;20105;-69
2021/01/30 00:42:59;;;;;;;7.05;3.92;;;2.80;99.90;;;;;;5031574;28;20100;-69
2021/01/30 00:45:27;;;;;;;9.65;2.85;;;2.80;99.90;;;;;;5030865;28;20032;-69
2021/01/30 00:47:53;;;;;;;6.70;2.58;;;2.80;99.90;;;;;;5031214;28;20068;-68
2021/01/30 00:50:19;;;;;;;6.05;3.30;;;2.70;99.90;;;;;;5031088;28;20021;-69
2021/01/30 00:52:45;;;;;;;4.30;2.95;;;2.80;99.90;;;;;;5031003;28;20025;-69
2021/01/30 00:55:14;;;;;;;10.25;3.30;;;2.80;99.90;;;;;;5031831;28;20509;-69
2021/01/30 00:57:39;;;;;;;6.30;3.13;;;2.70;99.90;;;;;;5031095;28;20021;-69
2021/01/30 01:00:10;;;;;;;6.18;3.38;;;2.70;99.90;;;;;;5031524;28;20091;-69
2021/01/30 01:02:36;;;;;;;11.40;3.58;;;2.80;99.90;;;;;;5031491;28;20080;-69
2021/01/30 01:05:03;;;;;;;8.80;3.35;;;2.70;99.90;;;;;;5030663;28;20029;-69
2021/01/30 01:07:28;;;;;;;7.85;3.00;;;2.70;99.90;;;;;;5031354;28;20029;-69
2021/01/30 01:09:54;;;;;;;6.95;2.72;;;2.80;99.90;;;;;;5031590;28;20022;-69
2021/01/30 01:12:19;;;;;;;10.23;2.97;;;2.70;99.90;;;;;;5030781;28;20024;-69
2021/01/30 01:14:45;;;;;;;8.32;3.05;;;2.70;99.90;;;;;;5031079;28;20076;-69
2021/01/30 01:17:10;;;;;;;5.97;2.80;;;2.60;99.90;;;;;;5031189;28;20025;-68
2021/01/30 01:19:36;;;;;;;10.15;3.28;;;2.60;99.90;;;;;;5030921;28;20035;-69
2021/01/30 01:22:01;;;;;;;4.40;2.65;;;2.60;99.90;;;;;;5031168;28;20070;-69
2021/01/30 01:24:27;;;;;;;11.38;3.22;;;2.60;99.90;;;;;;5031473;28;20021;-69
2021/01/30 01:26:52;;;;;;;10.95;3.15;;;2.50;99.90;;;;;;5030218;28;20056;-69
2021/01/30 01:29:21;;;;;;;7.40;3.90;;;2.50;99.90;;;;;;5031239;28;20017;-69
2021/01/30 01:31:55;;;;;;;5.15;3.47;;;2.50;99.90;;;;;;5030733;28;20342;-69
2021/01/30 01:34:23;;;;;;;4.28;3.00;;;2.50;99.90;;;;;;5030601;28;20576;-69
2021/01/30 01:37:01;;;;;;;6.13;4.07;;;2.40;99.90;;;;;;5030880;28;20040;-69
2021/01/30 01:39:28;;;;;;;5.10;3.50;;;2.50;99.90;;;;;;5019232;28;20557;-68
2021/01/30 01:42:05;;;;;;;4.32;3.35;;;2.40;99.90;;;;;;5030360;28;20029;-69
2021/01/30 01:44:30;;;;;;;4.20;3.80;;;2.40;99.90;;;;;;5031609;28;20032;-69
2021/01/30 01:46:56;;;;;;;4.55;4.10;;;2.40;99.90;;;;;;5030407;28;20482;-69
2021/01/30 01:49:29;;;;;;;6.50;3.88;;;2.30;99.90;;;;;;5031014;28;20069;-69
2021/01/30 01:52:09;;;;;;;5.88;4.10;;;2.30;99.90;;;;;;5030980;28;20044;-69
2021/01/30 01:54:39;;;;;;;6.07;4.07;;;2.30;99.90;;;;;;5030222;28;20196;-69
2021/01/30 01:57:12;;;;;;;4.78;4.38;;;2.30;99.90;;;;;;5031441;28;20034;-67
2021/01/30 01:59:45;;;;;;;5.38;4.03;;;2.40;99.90;;;;;;5032023;28;20500;-69
2021/01/30 02:02:11;;;;;;;4.28;3.85;;;2.30;99.90;;;;;;5034538;28;20033;-68
2021/01/30 02:04:38;;;;;;;4.60;4.20;;;2.30;99.90;;;;;;5034639;28;20419;-68
2021/01/30 02:07:04;;;;;;;5.40;4.90;;;2.20;99.90;;;;;;5034339;28;20041;-68
2021/01/30 02:09:29;;;;;;;5.55;4.97;;;2.20;99.90;;;;;;5034328;28;20079;-69
2021/01/30 02:12:04;;;;;;;6.82;4.90;;;2.30;99.90;;;;;;5034328;28;20030;-69
2021/01/30 02:14:34;;;;;;;5.13;4.63;;;2.30;99.90;;;;;;5034724;28;20025;-69
2021/01/30 02:17:39;;;;;;;6.65;5.45;;;2.30;99.90;;;;;;5033548;28;20022;-69
2021/01/30 02:20:43;;;;;;;5.32;4.93;;;2.30;99.90;;;;;;5034046;28;20072;-69
2021/01/30 02:23:17;;;;;;;5.07;4.53;;;2.30;99.90;;;;;;5033678;28;20117;-69
2021/01/30 02:25:56;;;;;;;5.65;5.20;;;2.30;99.90;;;;;;5020789;28;20032;-69
2021/01/30 02:29:00;;;;;;;5.07;4.57;;;2.30;99.90;;;;;;5033126;28;20448;-70
2021/01/30 02:32:10;;;;;;;5.30;4.90;;;2.30;99.90;;;;;;5034164;28;20025;-68
2021/01/30 02:35:06;;;;;;;5.88;5.00;;;2.30;99.90;;;;;;5004048;28;20370;-68
2021/01/30 02:37:43;;;;;;;7.00;5.05;;;2.30;99.90;;;;;;5027797;28;20044;-68
2021/01/30 02:40:13;;;;;;;6.68;6.07;;;2.20;99.90;;;;;;5034107;28;20359;-68
2021/01/30 02:42:46;;;;;;;6.88;6.28;;;2.20;99.90;;;;;;5033860;28;20036;-69
2021/01/30 02:45:20;;;;;;;6.85;6.25;;;2.20;99.90;;;;;;5033318;28;20034;-69
2021/01/30 02:48:05;;;;;;;6.70;6.03;;;2.10;99.90;;;;;;5033731;28;20500;-68
2021/01/30 02:50:44;;;;;;;8.35;7.55;;;2.20;99.90;;;;;;5033315;28;20042;-69
2021/01/30 02:53:12;;;;;;;6.88;6.28;;;2.10;99.90;;;;;;5033458;28;20136;-68
2021/01/30 02:55:38;;;;;;;7.95;7.15;;;2.10;99.90;;;;;;5033928;28;20040;-68
2021/01/30 02:58:07;;;;;;;7.18;6.47;;;2.10;99.90;;;;;;5032761;28;20470;-68
2021/01/30 03:00:34;;;;;;;6.95;5.32;;;2.10;99.90;;;;;;5033662;28;20422;-68
2021/01/30 03:02:59;;;;;;;6.85;6.25;;;2.00;99.90;;;;;;5033335;28;20048;-68
2021/01/30 03:05:25;;;;;;;7.25;6.15;;;2.00;99.90;;;;;;5032820;28;20021;-68
2021/01/30 03:08:23;;;;;;;7.00;5.80;;;2.00;99.90;;;;;;5033214;28;20049;-68
2021/01/30 03:11:24;;;;;;;7.47;6.78;;;2.00;99.90;;;;;;5019972;28;20040;-68
2021/01/30 03:13:54;;;;;;;7.93;7.18;;;2.00;99.90;;;;;;5033014;28;20064;-68
2021/01/30 03:16:24;;;;;;;7.72;7.03;;;2.00;99.90;;;;;;5033696;28;20025;-68
2021/01/30 03:18:56;;;;;;;7.30;6.60;;;2.00;99.90;;;;;;5032502;28;20030;-68
2021/01/30 03:21:23;;;;;;;9.32;7.63;;;2.00;99.90;;;;;;5033530;28;20033;-68
2021/01/30 03:23:50;;;;;;;7.45;6.75;;;2.00;99.90;;;;;;5033088;28;20033;-68
2021/01/30 03:26:20;;;;;;;9.70;7.85;;;2.00;99.90;;;;;;5032307;28;20108;-68
2021/01/30 03:28:47;;;;;;;8.18;7.40;;;2.00;99.90;;;;;;5033085;28;20067;-68
2021/01/30 03:31:13;;;;;;;8.27;7.47;;;1.90;99.90;;;;;;5033264;28;20351;-68
2021/01/30 03:33:39;;;;;;;8.43;7.63;;;1.90;99.90;;;;;;5032439;28;20049;-68
2021/01/30 03:36:05;;;;;;;7.75;7.00;;;1.90;99.90;;;;;;5032613;28;20033;-68
2021/01/30 03:38:31;;;;;;;9.05;7.15;;;1.90;99.90;;;;;;5032822;28;20381;-68
2021/01/30 03:40:57;;;;;;;7.72;7.05;;;1.90;99.90;;;;;;5031662;28;20563;-68
2021/01/30 03:43:23;;;;;;;8.35;7.47;;;1.90;99.90;;;;;;5033105;28;20096;-67
2021/01/30 03:45:49;;;;;;;8.85;7.88;;;1.90;99.90;;;;;;5032583;28;20041;-67
2021/01/30 03:48:14;;;;;;;9.93;7.80;;;2.00;99.90;;;;;;5032011;28;20353;-68
2021/01/30 03:50:40;;;;;;;10.10;9.05;;;1.90;99.90;;;;;;5032532;28;20023;-68
2021/01/30 03:53:07;;;;;;;10.50;9.43;;;1.90;99.90;;;;;;5032091;28;20018;-68
2021/01/30 03:55:33;;;;;;;9.45;8.52;;;2.00;99.90;;;;;;5030466;28;20124;-68
2021/01/30 03:57:59;;;;;;;9.32;8.02;;;2.00;99.90;;;;;;5032060;28;20037;-68
2021/01/30 04:00:25;;;;;;;9.52;8.43;;;2.00;99.90;;;;;;5031634;28;20022;-68
2021/01/30 04:02:51;;;;;;;8.50;7.70;;;2.00;99.90;;;;;;5031966;28;20025;-68
2021/01/30 04:05:20;;;;;;;9.95;8.27;;;2.00;99.90;;;;;;5032274;28;20029;-68
2021/01/30 04:07:46;;;;;;;8.45;7.65;;;2.10;99.90;;;;;;5031152;28;20076;-69
2021/01/30 04:10:16;;;;;;;8.05;7.25;;;2.10;99.90;;;;;;5031909;28;20087;-68
2021/01/30 04:12:42;;;;;;;8.00;7.20;;;2.10;99.90;;;;;;5031727;28;20440;-68
2021/01/30 04:15:12;;;;;;;8.27;7.50;;;2.00;99.90;;;;;;5031328;28;20025;-69
2021/01/30 04:17:37;;;;;;;7.32;6.63;;;2.00;99.90;;;;;;5032028;28;20029;-68
2021/01/30 04:20:04;;;;;;;7.72;6.93;;;2.00;99.90;;;;;;5031466;28;20040;-69
2021/01/30 04:22:30;;;;;;;8.95;7.60;;;2.00;99.90;;;;;;5030778;28;20033;-68
2021/01/30 04:24:55;;;;;;;8.13;7.38;;;2.00;99.90;;;;;;5031406;28;20041;-69
2021/01/30 04:27:21;;;;;;;7.97;7.18;;;2.00;99.90;;;;;;5032427;28;20381;-68
2021/01/30 04:29:47;;;;;;;7.80;7.10;;;2.00;99.90;;;;;;5030807;28;20045;-68
2021/01/30 04:32:12;;;;;;;7.45;6.85;;;2.00;99.90;;;;;;5031537;28;20029;-69
2021/01/30 04:34:38;;;;;;;8.20;7.50;;;2.00;99.90;;;;;;5031764;28;20026;-69
2021/01/30 04:37:04;;;;;;;8.48;7.43;;;1.90;99.90;;;;;;5030530;28;20476;-69
2021/01/30 04:39:29;;;;;;;7.80;7.20;;;1.90;99.90;;;;;;5031432;28;20021;-68
2021/01/30 04:42:20;;;;;;;7.72;7.03;;;1.90;99.90;;;;;;5031361;28;20018;-69
2021/01/30 04:45:13;;;;;;;6.78;6.18;;;1.90;99.90;;;;;;5030566;28;20125;-69
2021/01/30 04:47:52;;;;;;;7.10;6.40;;;1.90;99.90;;;;;;5031424;28;20041;-69
2021/01/30 04:50:28;;;;;;;7.70;7.00;;;1.80;99.90;;;;;;5030731;28;20549;-69
2021/01/30 04:53:32;;;;;;;6.88;6.28;;;1.80;99.90;;;;;;5030986;28;20033;-68
2021/01/30 04:56:05;;;;;;;7.25;6.55;;;1.80;99.90;;;;;;4997073;28;20029;-69
2021/01/30 04:58:50;;;;;;;6.72;6.13;;;1.80;99.90;;;;;;5017980;28;20033;-68
2021/01/30 05:01:43;;;;;;;7.07;6.20;;;1.80;99.90;;;;;;5031314;28;20032;-69
2021/01/30 05:04:18;;;;;;;6.30;5.70;;;1.80;99.90;;;;;;5030709;28;20060;-69
2021/01/30 05:07:02;;;;;;;6.97;5.63;;;1.80;99.90;;;;;;5031033;28;20104;-69
2021/01/30 05:09:41;;;;;;;6.05;5.45;;;1.80;99.90;;;;;;5031308;28;20021;-69
2021/01/30 05:12:15;;;;;;;6.47;5.85;;;1.80;99.90;;;;;;5017619;28;20025;-69
2021/01/30 05:14:52;;;;;;;7.20;5.78;;;1.90;99.90;;;;;;5030646;28;20049;-69
2021/01/30 05:17:26;;;;;;;5.97;5.47;;;1.80;99.90;;;;;;5031358;28;20450;-70
2021/01/30 05:20:02;;;;;;;6.32;5.72;;;1.80;99.90;;;;;;5030254;28;20025;-69
2021/01/30 05:22:38;;;;;;;5.78;5.28;;;1.80;99.90;;;;;;5031424;28;20045;-69
2021/01/30 05:25:09;;;;;;;6.88;4.88;;;1.80;99.90;;;;;;5030140;28;20040;-69
2021/01/30 05:27:43;;;;;;;5.53;5.03;;;1.80;99.90;;;;;;5031299;28;20041;-69
2021/01/30 05:30:18;;;;;;;5.07;4.57;;;1.80;99.90;;;;;;5031174;28;20108;-68
2021/01/30 05:33:04;;;;;;;5.43;4.93;;;1.80;99.90;;;;;;5030382;28;20444;-68
2021/01/30 05:35:49;;;;;;;6.05;4.75;;;1.80;99.90;;;;;;5033108;28;20382;-69
2021/01/30 05:38:30;;;;;;;4.38;3.95;;;1.80;99.90;;;;;;5034921;28;20393;-69
2021/01/30 05:41:02;;;;;;;5.35;4.38;;;1.80;99.90;;;;;;5034095;28;20025;-69
2021/01/30 05:43:42;;;;;;;4.18;3.78;;;1.90;99.90;;;;;;5035192;28;20021;-69
2021/01/30 05:46:16;;;;;;;5.90;4.85;;;1.80;99.90;;;;;;5034395;28;20021;-69
2021/01/30 05:48:46;;;;;;;5.38;4.68;;;1.80;99.90;;;;;;5034757;28;20470;-69
2021/01/30 05:51:33;;;;;;;5.22;4.63;;;1.90;99.90;;;;;;5034846;28;20113;-69
2021/01/30 05:54:08;;;;;;;4.90;4.00;;;1.80;99.90;;;;;;5033887;28;20398;-68
2021/01/30 05:56:42;;;;;;;5.97;4.32;;;1.90;99.90;;;;;;5034666;28;20519;-69
2021/01/30 05:59:12;;;;;;;4.28;3.83;;;1.80;99.90;;;;;;5034982;28;20040;-69
2021/01/30 06:01:38;;;;;;;4.90;4.40;;;1.90;99.90;;;;;;5034122;28;20032;-69
2021/01/30 06:04:09;;;;;;;4.50;4.10;;;1.80;99.90;;;;;;5034848;28;20493;-69
2021/01/30 06:06:37;;;;;;;4.97;4.28;;;1.80;99.90;;;;;;5034392;28;20025;-69
2021/01/30 06:09:25;;;;;;;5.03;4.57;;;1.80;99.90;;;;;;5033843;28;20029;-69
2021/01/30 06:11:50;;;;;;;7.97;4.68;;;1.80;99.90;;;;;;5034157;28;20377;-69
2021/01/30 06:14:37;;;;;;;4.88;4.45;;;1.80;99.90;;;;;;5033940;28;20121;-69
2021/01/30 06:17:15;;;;;;;4.80;3.80;;;1.70;99.90;;;;;;5033978;28;20481;-69
2021/01/30 06:19:40;;;;;;;4.50;4.10;;;1.70;99.90;;;;;;5034419;28;20025;-69
2021/01/30 06:22:12;;;;;;;5.18;4.75;;;1.70;99.90;;;;;;5033568;28;20125;-68
2021/01/30 06:24:44;;;;;;;5.00;4.18;;;1.70;99.90;;;;;;5034182;28;20021;-68
2021/01/30 06:27:33;;;;;;;5.40;4.90;;;1.70;99.90;;;;;;5034102;28;20033;-68
2021/01/30 06:30:02;;;;;;;5.13;4.63;;;1.70;99.90;;;;;;5025750;28;20355;-68
2021/01/30 06:32:46;;;;;;;9.48;4.72;;;1.70;99.90;;;;;;5034237;28;20448;-68
2021/01/30 06:35:17;;;;;;;4.82;4.35;;;1.70;99.90;;;;;;5048649;28;20416;-68
2021/01/30 06:37:55;;;;;;;4.97;4.57;;;1.70;99.90;;;;;;5040770;28;20036;-69
2021/01/30 06:40:25;;;;;;;4.65;4.18;;;1.60;99.90;;;;;;5051178;28;20036;-69
2021/01/30 06:42:54;;;;;;;5.85;4.72;;;1.60;99.90;;;;;;5040097;28;20109;-69
2021/01/30 06:45:35;;;;;;;6.70;4.47;;;1.60;99.90;;;;;;5044775;28;20134;-68
2021/01/30 06:48:01;;;;;;;4.93;4.43;;;1.70;99.90;;;;;;5048341;28;20045;-68
2021/01/30 06:50:37;;;;;;;5.03;4.40;;;1.60;99.90;;;;;;5051909;28;20092;-68
2021/01/30 06:53:14;;;;;;;4.90;4.40;;;1.60;99.90;;;;;;5046932;28;20044;-68
2021/01/30 06:55:39;;;;;;;5.65;5.15;;;1.70;99.90;;;;;;5051487;28;20033;-68
2021/01/30 06:58:07;;;;;;;5.43;4.22;;;1.60;99.90;;;;;;5049482;28;20032;-68
2021/01/30 07:00:36;;;;;;;5.13;4.63;;;1.60;99.90;;;;;;5050748;28;20111;-68
2021/01/30 07:03:28;;;;;;;6.10;4.90;;;1.60;99.90;;;;;;5044610;28;20025;-68
2021/01/30 07:06:03;;;;;;;4.90;4.32;;;1.60;99.90;;;;;;5051633;28;20393;-68
2021/01/30 07:08:48;;;;;;;9.38;4.20;;;1.60;99.90;;;;;;5047599;28;20025;-68
2021/01/30 07:11:29;;;;;;;5.55;4.80;;;1.70;99.90;;;;;;5048940;28;20094;-68
2021/01/30 07:14:09;;;;;;;5.00;4.43;;;1.70;99.90;;;;;;5046907;28;20365;-68
2021/01/30 07:16:58;;;;;;;6.22;4.05;;;1.70;99.90;;;;;;5047910;28;20112;-68
2021/01/30 07:19:43;;;;;;;4.68;4.22;;;1.70;99.90;;;;;;5049077;28;20025;-68
2021/01/30 07:22:16;;;;;;;4.47;3.92;;;1.70;99.90;;;;;;5048528;28;20051;-68
2021/01/30 07:25:06;;;;;;;4.88;4.05;;;1.70;99.90;;;;;;5049466;28;20036;-68
2021/01/30 07:27:44;;;;;;;4.25;3.85;;;1.60;99.90;;;;;;5041679;28;20499;-67
2021/01/30 07:30:45;;;;;;;6.20;4.80;;;1.70;99.90;;;;;;5049961;28;20036;-69
2021/01/30 07:33:18;;;;;;;5.15;4.65;;;1.70;99.90;;;;;;5028587;28;20063;-68
2021/01/30 07:36:06;;;;;;;4.15;3.75;;;1.70;99.90;;;;;;5044840;28;20380;-69
2021/01/30 07:38:41;;;;;;;5.63;4.28;;;1.70;99.90;;;;;;5050252;28;20033;-68
2021/01/30 07:41:42;;;;;;;4.72;4.25;;;1.60;99.90;;;;;;5050757;28;20028;-69
2021/01/30 07:44:16;;;;;;;4.15;3.72;;;1.70;99.90;;;;;;5051467;28;20037;-69
2021/01/30 07:46:45;;;;;;;4.95;4.28;;;1.70;99.90;;;;;;5047850;28;20037;-69
2021/01/30 07:49:18;;;;;;;5.10;4.13;;;1.70;99.90;;;;;;5046720;28;20461;-69
2021/01/30 07:52:04;;;;;;;4.90;4.40;;;1.80;99.90;;;;;;5046074;28;20029;-69
2021/01/30 07:54:30;;;;;;;7.68;4.00;;;1.80;99.90;;;;;;5044865;28;20046;-68
2021/01/30 07:57:12;;;;;;;4.45;4.05;;;1.80;99.90;;;;;;5039674;28;20048;-69
2021/01/30 08:00:09;;;;;;;4.28;3.88;;;1.80;99.90;;;;;;5032077;28;20017;-69
2021/01/30 08:03:07;;;;;;;5.55;4.97;;;1.80;99.90;;;;;;5030697;28;20044;-69
2021/01/30 08:05:37;;;;;;;3.85;3.33;;;1.80;99.90;;;;;;5032565;28;20115;-69
2021/01/30 08:08:25;;;;;;;4.68;3.17;;;1.80;99.90;;;;;;5031509;28;20060;-70
2021/01/30 08:10:55;;;;;;;5.55;3.95;;;1.90;99.90;;;;;;5032437;28;20033;-69
2021/01/30 08:13:49;;;;;;;4.40;4.00;;;1.90;99.90;;;;;;5032520;28;20079;-69
2021/01/30 08:16:43;;;;;;;4.95;4.45;;;1.90;99.90;;;;;;5032598;28;20034;-68
2021/01/30 08:19:16;;;;;;;5.03;4.32;;;1.90;99.90;;;;;;5031517;28;20104;-69
2021/01/30 08:21:47;;;;;;;5.25;4.38;;;1.90;99.90;;;;;;5041251;28;20025;-70
2021/01/30 08:24:27;;;;;;;6.10;4.78;;;2.00;99.90;;;;;;5034840;28;20489;-69
2021/01/30 08:27:05;;;;;;;4.22;3.83;;;2.00;99.90;;;;;;5048578;28;20040;-68
2021/01/30 08:29:44;;;;;;;4.47;4.07;;;2.00;99.90;;;;;;5045999;28;20473;-69
2021/01/30 08:32:25;;;;;;;3.78;3.47;;;2.10;99.90;;;;;;5049239;28;20146;-68
2021/01/30 08:34:50;;;;;;;;;;;2.10;99.90;;;;;;5030181;28;20052;-70
2021/01/30 08:37:16;;;;;;;4.57;4.10;;;2.10;99.90;;;;;;5037676;28;19905;-69
2021/01/30 08:40:10;;;;;;;4.72;4.32;;;2.20;99.90;;;;;;5030746;28;20369;-68
2021/01/30 08:42:52;;;;;;;4.25;3.85;;;2.20;99.90;;;;;;5031084;28;20025;-69
2021/01/30 08:45:25;;;;;;;4.38;3.63;;;2.20;99.90;;;;;;5030317;28;20076;-68
2021/01/30 08:47:54;;;;;;;5.97;3.53;;;2.20;99.90;;;;;;5029823;28;20042;-69
2021/01/30 08:50:25;;;;;;;4.70;4.20;;;2.20;99.90;;;;;;5034425;28;20020;-69
2021/01/30 08:53:09;;;;;;;6.57;4.22;;;2.20;99.90;;;;;;5045405;28;20068;-69
2021/01/30 08:55:44;;;;;;;4.57;4.15;;;2.20;99.90;;;;;;5031266;28;20045;-67
2021/01/30 08:58:37;;;;;;;3.78;3.45;;;2.30;99.90;;;;;;5048089;28;20057;-68
2021/01/30 09:01:10;;;;;;;5.07;4.25;;;2.30;99.90;;;;;;5037431;28;20087;-69
2021/01/30 09:03:52;;;;;;;4.88;4.38;;;2.30;99.90;;;;;;5048263;28;20040;-69
2021/01/30 09:06:40;;;;;;;4.93;4.43;;;2.30;99.90;;;;;;5048286;28;20017;-70
2021/01/30 09:09:10;;;;;;;4.90;4.30;;;2.40;99.90;;;;;;5022991;28;20025;-69
2021/01/30 09:11:53;;;;;;;4.93;4.25;;;2.40;99.90;;;;;;5030716;28;20079;-70
2021/01/30 09:14:18;;;;;;;5.43;4.30;;;2.30;99.90;;;;;;5031326;28;20033;-69
2021/01/30 09:16:53;;;;;;;4.72;3.75;;;2.40;99.90;;;;;;5040923;28;20468;-69
2021/01/30 09:19:36;;;;;;;5.43;4.82;;;2.50;99.90;;;;;;5051566;28;20029;-69
2021/01/30 09:22:22;;;;;;;5.95;4.20;;;2.50;99.90;;;;;;5051343;28;20096;-68
2021/01/30 09:25:15;;;;;;;5.28;4.20;;;2.50;99.90;;;;;;5023423;28;20029;-69
2021/01/30 09:27:58;;;;;;;5.20;4.40;;;2.50;99.90;;;;;;5050661;28;20044;-69
2021/01/30 09:30:26;;;;;;;4.97;3.90;;;2.60;99.90;;;;;;5051257;28;20032;-69
2021/01/30 09:32:52;;;;;;;4.13;3.72;;;2.60;99.90;;;;;;5050105;28;20527;-68
2021/01/30 09:35:35;;;;;;;5.05;4.55;;;2.60;99.90;;;;;;5042331;28;20041;-71
2021/01/30 09:38:23;;;;;;;5.47;4.82;;;2.60;99.90;;;;;;5016913;28;20025;-68
2021/01/30 09:40:49;;;;;;;5.03;4.43;;;2.60;99.90;;;;;;5030978;28;20034;-68
2021/01/30 09:43:21;;;;;;;4.78;4.35;;;2.60;99.90;;;;;;5031361;28;20117;-69
2021/01/30 09:45:52;;;;;;;4.90;4.40;;;2.60;99.90;;;;;;5030364;28;20025;-68
2021/01/30 09:48:19;;;;;;;5.35;4.82;;;2.70;99.90;;;;;;5035400;28;20135;-68
2021/01/30 09:50:50;;;;;;;6.25;4.10;;;2.70;99.90;;;;;;5048525;28;20074;-68
2021/01/30 09:53:35;;;;;;;5.13;3.85;;;2.70;99.90;;;;;;5045551;28;20049;-68
2021/01/30 09:56:21;;;;;;;4.72;4.32;;;2.70;99.90;;;;;;5045289;28;20033;-69
2021/01/30 09:58:54;;;;;;;5.30;4.60;;;2.70;99.90;;;;;;5048014;28;20017;-68
2021/01/30 10:01:34;;;;;;;5.90;4.90;;;2.80;99.90;;;;;;5047023;28;20102;-68
2021/01/30 10:04:21;;;;;;;5.80;5.05;;;2.70;99.90;;;;;;5049819;28;20028;-69
2021/01/30 10:06:49;;;;;;;5.53;4.90;;;2.70;99.90;;;;;;5042381;28;20064;-68
2021/01/30 10:09:19;;;;;;;4.45;4.05;;;2.70;99.90;;;;;;5047778;28;20079;-68
2021/01/30 10:11:49;;;;;;;4.97;4.43;;;2.70;99.90;;;;;;5042686;28;20040;-68
2021/01/30 10:14:15;;;;;;;5.53;4.75;;;2.80;99.90;;;;;;5030472;28;20025;-70
2021/01/30 10:16:55;;;;;;;9.05;4.70;;;2.80;99.90;;;;;;5033437;28;20481;-68
2021/01/30 10:19:27;;;;;;;10.70;7.95;;;2.80;99.90;;;;;;5037833;28;20036;-69
2021/01/30 10:21:53;;;;;;;5.53;4.40;;;2.80;99.90;;;;;;5044628;28;20055;-67
2021/01/30 10:24:33;;;;;;;8.05;6.18;;;2.90;99.90;;;;;;5052500;28;20025;-67
2021/01/30 10:27:21;;;;;;;5.22;4.72;;;2.90;99.90;;;;;;5045469;28;20046;-68
2021/01/30 10:29:50;;;;;;;4.97;4.47;;;3.00;99.90;;;;;;5036573;28;20022;-68
2021/01/30 10:32:26;;;;;;;9.98;5.68;;;3.00;99.90;;;;;;5040282;28;20028;-68
2021/01/30 10:35:05;;;;;;;5.00;4.50;;;3.10;99.90;;;;;;5053517;28;20516;-69
2021/01/30 10:37:51;;;;;;;5.10;4.57;;;3.10;99.90;;;;;;5038125;28;20489;-68
2021/01/30 10:40:32;;;;;;;6.15;5.10;;;3.10;99.90;;;;;;5039752;28;20017;-68
2021/01/30 10:42:59;;;;;;;;;;;3.10;99.90;;;;;;5048094;28;20041;-68
2021/01/30 10:45:31;;;;;;;6.80;4.88;;;3.30;99.90;;;;;;5051473;28;19904;-69
2021/01/30 10:48:04;;;;;;;4.53;4.13;;;3.30;99.90;;;;;;5047200;28;20037;-69
2021/01/30 10:50:42;;;;;;;5.05;4.53;;;3.30;99.90;;;;;;5047559;28;20025;-69
2021/01/30 10:53:29;;;;;;;4.68;4.00;;;3.30;99.90;;;;;;5051401;28;20017;-69
2021/01/30 10:55:55;;;;;;;3.97;3.58;;;3.40;99.90;;;;;;5051935;28;20045;-69
2021/01/30 10:58:24;;;;;;;5.38;4.88;;;3.40;99.90;;;;;;5049981;28;20010;-69
2021/01/30 11:01:04;;;;;;;5.82;4.95;;;3.40;99.90;;;;;;5045550;28;20489;-69
2021/01/30 11:03:53;;;;;;;5.40;4.90;;;3.40;99.90;;;;;;5046108;28;20033;-69
2021/01/30 11:06:42;;;;;;;4.82;4.38;;;3.40;99.90;;;;;;5048603;28;20112;-69
2021/01/30 11:09:16;;;;;;;5.25;4.75;;;3.40;99.90;;;;;;5046621;28;20081;-68
2021/01/30 11:11:42;;;;;;;6.05;5.45;;;3.40;99.90;;;;;;5047167;28;20026;-68
2021/01/30 11:14:31;;;;;;;5.38;4.88;;;3.40;99.90;;;;;;5052340;28;20036;-69
2021/01/30 11:16:59;;;;;;;5.40;4.90;;;3.50;99.90;;;;;;5046884;28;20022;-69
2021/01/30 11:19:41;;;;;;;5.47;4.97;;;3.50;99.90;;;;;;5050862;28;20025;-69
2021/01/30 11:22:06;;;;;;;5.32;4.82;;;3.50;99.90;;;;;;5043914;28;20028;-68
2021/01/30 11:24:35;;;;;;;4.80;4.40;;;3.60;99.90;;;;;;5050973;28;20055;-68
2021/01/30 11:27:02;;;;;;;5.10;4.65;;;3.60;99.90;;;;;;5050359;28;20025;-68
2021/01/30 11:29:38;;;;;;;6.70;4.78;;;3.60;99.90;;;;;;5047493;28;20025;-68
2021/01/30 11:32:07;;;;;;;5.00;4.50;;;3.70;99.90;;;;;;5034418;28;20030;-69
2021/01/30 11:34:33;;;;;;;5.97;5.38;;;3.70;99.90;;;;;;5025298;28;20186;-68
2021/01/30 11:37:00;;;;;;;5.78;5.18;;;3.80;99.90;;;;;;5033225;28;20366;-68
2021/01/30 11:39:28;;;;;;;5.60;4.72;;;3.90;99.90;;;;;;5032692;28;20029;-68
2021/01/30 11:41:55;;;;;;;5.88;5.28;;;3.80;99.90;;;;;;5032901;28;20025;-68
2021/01/30 11:44:20;;;;;;;6.18;5.45;;;3.80;99.90;;;;;;5032904;28;20026;-68
2021/01/30 11:46:46;;;;;;;5.18;4.68;;;3.90;99.90;;;;;;5031965;28;20045;-69
2021/01/30 11:49:12;;;;;;;6.43;5.82;;;3.90;99.90;;;;;;5033367;28;20212;-68
2021/01/30 11:51:37;;;;;;;6.63;5.18;;;3.90;99.90;;;;;;5032325;28;20116;-67
2021/01/30 11:54:03;;;;;;;5.13;4.63;;;3.90;99.90;;;;;;5032619;28;20060;-67
2021/01/30 11:56:29;;;;;;;5.43;4.70;;;3.90;99.90;;;;;;5032814;28;20421;-70
2021/01/30 11:58:54;;;;;;;5.65;5.15;;;3.90;99.90;;;;;;5033322;28;20033;-68
2021/01/30 12:01:20;;;;;;;6.55;5.88;;;3.90;99.90;;;;;;5032265;28;20018;-68
2021/01/30 12:03:46;;;;;;;5.15;4.75;;;3.90;99.90;;;;;;5032610;28;20033;-69
2021/01/30 12:06:12;;;;;;;5.05;4.57;;;3.90;99.90;;;;;;5028562;28;20018;-68
2021/01/30 12:08:38;;;;;;;6.35;5.65;;;3.80;99.90;;;;;;5040446;28;20511;-69
2021/01/30 12:11:05;;;;;;;5.30;4.28;;;3.90;99.90;;;;;;5036352;28;20112;-68
2021/01/30 12:13:31;;;;;;;5.03;4.05;;;3.90;99.90;;;;;;5038786;28;20061;-69
2021/01/30 12:15:56;;;;;;;4.95;4.53;;;3.90;99.90;;;;;;5032338;28;20045;-69
2021/01/30 12:18:22;;;;;;;5.28;4.78;;;3.90;99.90;;;;;;5034544;28;20026;-68
2021/01/30 12:20:50;;;;;;;5.60;5.00;;;3.80;99.90;;;;;;5033099;28;20029;-68
2021/01/30 12:23:16;;;;;;;5.00;4.50;;;3.80;99.90;;;;;;5032202;28;20484;-69
2021/01/30 12:25:42;;;;;;;5.45;4.95;;;3.90;99.90;;;;;;5031775;28;20028;-69
2021/01/30 12:28:10;;;;;;;7.75;5.15;;;3.90;99.90;;;;;;5031463;28;20477;-68
2021/01/30 12:30:38;;;;;;;5.15;4.65;;;3.90;99.90;;;;;;5032255;28;20082;-70
2021/01/30 12:33:05;;;;;;;7.25;6.25;;;3.90;99.90;;;;;;5034695;28;20036;-70
2021/01/30 12:35:32;;;;;;;6.43;5.82;;;3.90;99.90;;;;;;5036746;28;20485;-68
2021/01/30 12:37:59;;;;;;;5.25;4.43;;;3.90;99.90;;;;;;5038213;28;20017;-67
2021/01/30 12:40:32;;;;;;;5.28;4.60;;;3.90;99.90;;;;;;5047513;28;20029;-70
2021/01/30 12:42:58;;;;;;;4.50;4.05;;;4.00;99.90;;;;;;5042314;28;20370;-67
2021/01/30 12:45:24;;;;;;;5.88;4.47;;;4.00;99.90;;;;;;5047919;28;20082;-68
2021/01/30 12:47:50;;;;;;;4.72;4.30;;;4.00;99.90;;;;;;5045643;28;20120;-68
2021/01/30 12:50:19;;;;;;;5.47;4.35;;;4.00;99.90;;;;;;5048841;28;20016;-68
2021/01/30 12:52:44;;;;;;;5.70;5.13;;;3.90;99.90;;;;;;5035979;28;20077;-68
2021/01/30 12:55:11;;;;;;;5.25;4.75;;;3.90;99.90;;;;;;5030832;28;20489;-68
2021/01/30 12:57:37;;;;;;;5.75;5.05;;;3.90;99.90;;;;;;5031669;28;20037;-69
2021/01/30 13:00:15;;;;;;;4.57;4.18;;;3.90;99.90;;;;;;5031548;28;20108;-68
2021/01/30 13:02:41;;;;;;;5.78;5.20;;;3.90;99.90;;;;;;5030913;28;20099;-68
2021/01/30 13:05:08;;;;;;;5.28;4.78;;;3.90;99.90;;;;;;5031723;28;20025;-68
2021/01/30 13:07:34;;;;;;;5.43;4.93;;;3.90;99.90;;;;;;5031383;28;20034;-68
2021/01/30 13:10:00;;;;;;;6.07;5.38;;;4.00;99.90;;;;;;5030702;28;20334;-68
2021/01/30 13:12:25;;;;;;;5.53;5.00;;;4.00;99.90;;;;;;5036813;28;20016;-68
2021/01/30 13:14:51;;;;;;;5.55;5.05;;;4.10;99.90;;;;;;5044851;28;20041;-67
2021/01/30 13:17:17;;;;;;;5.47;4.88;;;4.10;99.90;;;;;;5047986;28;20028;-69
2021/01/30 13:19:44;;;;;;;5.32;4.82;;;4.10;99.90;;;;;;5047055;28;20440;-68
2021/01/30 13:22:10;;;;;;;6.43;4.70;;;4.20;99.90;;;;;;5046559;28;20484;-67
2021/01/30 13:24:36;;;;;;;6.00;5.43;;;4.20;99.90;;;;;;5048669;28;20492;-67
2021/01/30 13:27:04;;;;;;;6.57;5.90;;;4.30;99.90;;;;;;5048801;28;20041;-68
2021/01/30 13:29:32;;;;;;;8.77;7.78;;;4.30;99.90;;;;;;5046986;28;20079;-66